»·PEaware :: N621CV KBOI-KRNO

N621CV :: KBOI-KRNO

FLIGHT INFORMATION

Flight Status: Arrived
Operator: Privately registered:
United States
More flights under this callsign
Pilot: Paul T. (5885)
Aircraft: CESSNA T210 TURBO CENTURION
(T210)
More flights by this aircraft type
Origin: KBOI Boise Air Terminal/Gowen
United States
Destination: KRNO Reno/Tahoe Intl
United States
More flights between these airports :: More routes between these airports
Route: +BOI3 RENOL V113 FMG
File this flight plan on PilotEdge
Remarks: RMK / SIMBRIEF
Altitude:
(Current/Filed)
12,000ft
Speed:
(Current/Filed)
179kts
Departed: 31-Mar-20 08:46 AM
Arrived: 31-Mar-20 11:10 AM
Distance/Time
Traveled:
291nm/2:24
Distance/Time
To Go:
Arrived

Flight Plot

Page will automatically refresh every two minutes.


Map Options




Map Legend


Flown Route
Filed Route
Departure Airport
Arrival Airport
Navaid (VOR, NDB)
Fix

Horizontal Profiles

Position Reports

Time Latitude Longitude Heading Altitude Ground
Speed
31-Mar-20 08:26 43.562236 -116.206306 270 2865ft 0kts
31-Mar-20 08:27 43.562236 -116.206306 269 2865ft 0kts
31-Mar-20 08:28 43.562236 -116.206306 269 2865ft 0kts
31-Mar-20 08:29 43.562236 -116.206306 269 2865ft 0kts
31-Mar-20 08:30 43.562236 -116.206306 269 2865ft 0kts
31-Mar-20 08:31 43.562236 -116.206306 269 2865ft 0kts
31-Mar-20 08:32 43.562236 -116.206306 269 2865ft 0kts
31-Mar-20 08:33 43.562236 -116.206306 269 2865ft 0kts
31-Mar-20 08:34 43.562235 -116.206312 265 2865ft 0kts
31-Mar-20 08:35 43.562006 -116.206295 138 2865ft 0kts
31-Mar-20 08:36 43.561813 -116.208844 296 2860ft 21kts
31-Mar-20 08:37 43.564370 -116.216287 293 2852ft 10kts
31-Mar-20 08:38 43.566032 -116.221128 294 2848ft 21kts
31-Mar-20 08:39 43.568578 -116.228644 293 2838ft 18kts
31-Mar-20 08:40 43.570444 -116.234071 289 2829ft 13kts
31-Mar-20 08:41 43.570883 -116.235337 300 2826ft 0kts
31-Mar-20 08:42 43.570883 -116.235337 300 2826ft 0kts
31-Mar-20 08:43 43.570974 -116.235583 294 2825ft 5kts
31-Mar-20 08:44 43.570469 -116.236517 187 2825ft 10kts
31-Mar-20 08:45 43.564472 -116.220990 118 3087ft 71kts
31-Mar-20 08:46 43.552947 -116.193115 115 3966ft 93kts
31-Mar-20 08:47 43.541618 -116.158618 109 4928ft 111kts
31-Mar-20 08:48 43.526857 -116.118584 118 5794ft 124kts
31-Mar-20 08:49 43.506861 -116.081152 170 6642ft 124kts
31-Mar-20 08:50 43.489456 -116.113550 259 7463ft 125kts
31-Mar-20 08:51 43.478224 -116.159864 240 8174ft 129kts
31-Mar-20 08:52 43.463450 -116.205040 243 8858ft 129kts
31-Mar-20 08:53 43.446496 -116.246296 242 9627ft 122kts
31-Mar-20 08:54 43.432097 -116.286633 247 10426ft 112kts
31-Mar-20 08:55 43.420542 -116.323867 247 11269ft 102kts
31-Mar-20 08:56 43.408896 -116.358327 247 12015ft 100kts
31-Mar-20 08:57 43.395392 -116.395562 249 12035ft 111kts
31-Mar-20 08:58 43.382997 -116.435131 251 11992ft 117kts
31-Mar-20 08:59 43.369275 -116.475390 244 11969ft 116kts
31-Mar-20 09:00 43.354377 -116.515290 246 11899ft 122kts
31-Mar-20 09:01 43.340550 -116.556793 248 11992ft 113kts
31-Mar-20 09:02 43.325128 -116.594617 234 12031ft 121kts
31-Mar-20 09:03 43.304146 -116.629802 242 12063ft 117kts
31-Mar-20 09:04 43.284439 -116.666097 243 12092ft 121kts
31-Mar-20 09:05 43.265186 -116.703703 236 12123ft 120kts
31-Mar-20 09:06 43.242271 -116.739837 238 12031ft 127kts
31-Mar-20 09:07 43.221204 -116.776981 239 12097ft 125kts
31-Mar-20 09:08 43.199030 -116.816064 240 11897ft 130kts
31-Mar-20 09:09 43.178054 -116.854219 237 11998ft 124kts
31-Mar-20 09:10 43.156656 -116.891559 240 12042ft 124kts
31-Mar-20 09:11 43.133915 -116.927643 237 12056ft 127kts
31-Mar-20 09:12 43.114392 -116.965700 237 12147ft 124kts
31-Mar-20 09:13 43.091603 -117.002989 240 12067ft 128kts
31-Mar-20 09:14 43.071670 -117.042109 242 12147ft 123kts
31-Mar-20 09:15 43.050295 -117.078818 236 12287ft 124kts
31-Mar-20 09:16 43.028151 -117.115766 235 12273ft 128kts
31-Mar-20 09:17 43.003575 -117.152020 239 12247ft 129kts
31-Mar-20 09:18 42.982815 -117.191330 247 12190ft 128kts
31-Mar-20 09:19 42.961106 -117.230223 236 12124ft 133kts
31-Mar-20 09:20 42.937905 -117.268416 235 12021ft 135kts
31-Mar-20 09:21 42.916563 -117.307881 240 12030ft 126kts
31-Mar-20 09:22 42.895328 -117.345178 235 12033ft 126kts
31-Mar-20 09:23 42.873570 -117.380503 240 12076ft 118kts
31-Mar-20 09:24 42.853381 -117.415147 240 12069ft 114kts
31-Mar-20 09:25 42.834147 -117.447642 238 12112ft 106kts
31-Mar-20 09:26 42.821090 -117.477175 251 12547ft 66kts
31-Mar-20 09:27 42.806254 -117.496550 237 12842ft 70kts
31-Mar-20 09:28 42.792324 -117.512969 243 13261ft 61kts
31-Mar-20 09:29 42.779374 -117.527226 241 13632ft 64kts
31-Mar-20 09:30 42.768535 -117.545155 257 14032ft 58kts
31-Mar-20 09:31 42.758824 -117.563945 246 14513ft 61kts
31-Mar-20 09:32 42.745850 -117.578275 246 15022ft 54kts
31-Mar-20 09:33 42.733990 -117.592192 250 15464ft 58kts
31-Mar-20 09:34 42.725020 -117.608246 264 16088ft 48kts
31-Mar-20 09:35 42.720136 -117.624260 264 16728ft 45kts
31-Mar-20 09:36 42.713492 -117.637663 264 17376ft 40kts
31-Mar-20 09:37 42.705727 -117.653279 255 17882ft 59kts
31-Mar-20 09:38 42.697463 -117.678035 254 17931ft 90kts
31-Mar-20 09:39 42.677263 -117.704547 245 18120ft 99kts
31-Mar-20 09:40 42.659991 -117.735600 254 18071ft 106kts
31-Mar-20 09:41 42.646642 -117.771875 251 18112ft 112kts
31-Mar-20 09:42 42.623686 -117.803846 239 18125ft 126kts
31-Mar-20 09:43 42.599029 -117.837654 247 18085ft 122kts
31-Mar-20 09:44 42.569374 -117.863171 195 18095ft 183kts
31-Mar-20 09:45 42.521164 -117.860323 212 18104ft 164kts
31-Mar-20 09:46 42.478223 -117.872240 217 18149ft 159kts
31-Mar-20 09:47 42.434875 -117.887629 216 18068ft 166kts
31-Mar-20 09:48 42.389058 -117.900851 211 18109ft 170kts
31-Mar-20 09:49 42.340208 -117.906953 206 18046ft 180kts
31-Mar-20 09:50 42.291154 -117.911789 207 18036ft 178kts
31-Mar-20 09:51 42.243151 -117.919527 209 18168ft 170kts
31-Mar-20 09:52 42.194180 -117.925713 206 18161ft 175kts
31-Mar-20 09:53 42.145269 -117.929182 208 18182ft 177kts
31-Mar-20 09:54 42.095893 -117.939092 213 17831ft 181kts
31-Mar-20 09:55 42.046664 -117.949414 209 17762ft 183kts
31-Mar-20 09:56 41.997465 -117.953437 206 17899ft 181kts
31-Mar-20 09:57 41.950080 -117.961543 205 18019ft 180kts
31-Mar-20 09:59 41.900806 -117.965792 206 18114ft 175kts
31-Mar-20 10:00 41.853506 -117.969389 204 18187ft 179kts
31-Mar-20 10:01 41.806536 -117.979125 222 18208ft 156kts
31-Mar-20 10:02 41.758562 -117.987252 206 18210ft 176kts
31-Mar-20 10:03 41.710040 -117.993456 210 18223ft 173kts
31-Mar-20 10:04 41.662147 -118.001402 209 18268ft 173kts
31-Mar-20 10:05 41.612186 -118.006838 206 18149ft 182kts
31-Mar-20 10:06 41.564619 -118.014914 211 18261ft 172kts
31-Mar-20 10:07 41.516148 -118.020818 210 18306ft 173kts
31-Mar-20 10:08 41.467804 -118.027626 207 18328ft 177kts
31-Mar-20 10:09 41.418774 -118.035868 204 18291ft 182kts
31-Mar-20 10:10 41.376875 -118.052896 228 18331ft 153kts
31-Mar-20 10:11 41.342756 -118.084025 242 18227ft 142kts
31-Mar-20 10:12 41.312705 -118.120421 235 18117ft 149kts
31-Mar-20 10:13 41.277599 -118.150501 236 18146ft 145kts
31-Mar-20 10:14 41.245079 -118.181992 229 18113ft 148kts
31-Mar-20 10:14 41.216650 -118.206276 231 18139ft 148kts
31-Mar-20 10:16 41.178346 -118.244169 235 18006ft 149kts
31-Mar-20 10:17 41.143366 -118.271943 230 18333ft 140kts
31-Mar-20 10:17 41.114657 -118.296333 230 18227ft 149kts
31-Mar-20 10:19 41.074409 -118.331412 234 18279ft 144kts
31-Mar-20 10:20 41.042125 -118.361117 230 18376ft 149kts
31-Mar-20 10:21 41.005970 -118.389903 227 18332ft 156kts
31-Mar-20 10:21 40.977043 -118.413364 235 18538ft 141kts
31-Mar-20 10:22 40.943454 -118.445768 231 18298ft 158kts
31-Mar-20 10:24 40.900283 -118.483532 230 18122ft 156kts
31-Mar-20 10:24 40.872137 -118.507941 231 18120ft 152kts
31-Mar-20 10:25 40.837164 -118.538662 230 18120ft 150kts
31-Mar-20 10:26 40.802385 -118.569315 230 18120ft 150kts
31-Mar-20 10:27 40.767790 -118.599400 230 18124ft 150kts
31-Mar-20 10:28 40.733047 -118.629731 230 18130ft 150kts
31-Mar-20 10:29 40.699104 -118.659346 230 18148ft 151kts
31-Mar-20 10:30 40.663743 -118.690175 229 18154ft 154kts
31-Mar-20 10:31 40.627767 -118.721392 229 18159ft 155kts
31-Mar-20 10:32 40.591613 -118.752828 229 18158ft 155kts
31-Mar-20 10:33 40.555346 -118.784140 229 18158ft 155kts
31-Mar-20 10:34 40.519208 -118.815561 229 18158ft 156kts
31-Mar-20 10:35 40.482976 -118.846928 229 18159ft 156kts
31-Mar-20 10:36 40.446703 -118.878285 229 18160ft 156kts
31-Mar-20 10:37 40.410513 -118.909527 229 18160ft 156kts
31-Mar-20 10:38 40.374197 -118.940810 229 18161ft 156kts
31-Mar-20 10:39 40.338054 -118.971900 229 18162ft 156kts
31-Mar-20 10:40 40.302667 -119.002282 229 18157ft 156kts
31-Mar-20 10:41 40.266612 -119.033219 229 18165ft 155kts
31-Mar-20 10:42 40.231269 -119.063525 229 18174ft 155kts
31-Mar-20 10:43 40.195006 -119.094558 229 18182ft 156kts
31-Mar-20 10:44 40.158832 -119.125511 229 18188ft 154kts
31-Mar-20 10:45 40.122234 -119.154721 226 17749ft 161kts
31-Mar-20 10:46 40.087952 -119.184510 230 17201ft 149kts
31-Mar-20 10:47 40.055829 -119.216808 238 15839ft 147kts
31-Mar-20 10:48 40.022299 -119.249224 221 15322ft 167kts
31-Mar-20 10:49 39.982022 -119.280039 223 14285ft 178kts
31-Mar-20 10:50 39.942897 -119.313146 226 13417ft 162kts
31-Mar-20 10:51 39.908293 -119.346425 230 12682ft 153kts
31-Mar-20 10:52 39.882757 -119.380184 260 12318ft 111kts
31-Mar-20 10:53 39.872253 -119.418457 257 11361ft 110kts
31-Mar-20 10:54 39.861234 -119.458082 257 10674ft 123kts
31-Mar-20 10:55 39.851984 -119.502607 256 10399ft 135kts
31-Mar-20 10:56 39.842235 -119.551441 260 10145ft 142kts
31-Mar-20 10:57 39.827788 -119.597027 250 10079ft 140kts
31-Mar-20 10:58 39.812875 -119.643018 247 10120ft 132kts
31-Mar-20 10:59 39.784352 -119.677693 225 9863ft 140kts
31-Mar-20 11:00 39.754559 -119.709104 220 9396ft 133kts
31-Mar-20 11:01 39.721595 -119.727867 196 8741ft 138kts
31-Mar-20 11:02 39.683796 -119.728237 208 8084ft 126kts
31-Mar-20 11:03 39.650291 -119.737292 196 7174ft 107kts
31-Mar-20 11:04 39.625529 -119.752338 204 7281ft 103kts
31-Mar-20 11:05 39.595641 -119.760404 190 6978ft 102kts
31-Mar-20 11:06 39.569408 -119.764609 186 5906ft 100kts
31-Mar-20 11:07 39.542606 -119.766424 177 5071ft 94kts
31-Mar-20 11:08 39.517383 -119.766694 181 4521ft 90kts
31-Mar-20 11:09 39.503941 -119.766794 180 4419ft 10kts
31-Mar-20 11:10 39.501621 -119.765711 179 4419ft 7kts
31-Mar-20 11:11 39.500860 -119.764844 91 4419ft 2kts
31-Mar-20 11:12 39.499912 -119.764911 257 4419ft 0kts
31-Mar-20 11:13 39.499912 -119.764911 257 4419ft 0kts
31-Mar-20 11:14 39.499912 -119.764911 257 4419ft 0kts

Navigation Log

Ident Type
Flight plan parsing failed, navigation log unavailable